createdAt,value
2017-12-27T00:00:57.922Z,0.80
2017-12-27T00:03:45.375Z,0.80
2017-12-27T00:06:18.173Z,0.80
2017-12-27T00:08:50.699Z,0.80
2017-12-27T00:11:23.181Z,0.90
2017-12-27T00:13:56.280Z,0.90
2017-12-27T00:16:28.642Z,0.90
2017-12-27T00:19:02.054Z,0.90
2017-12-27T00:21:34.393Z,1.00
2017-12-27T00:24:06.857Z,1.10
2017-12-27T00:26:39.913Z,1.10
2017-12-27T00:29:12.390Z,1.10
2017-12-27T00:31:38.790Z,1.10
2017-12-27T00:34:05.190Z,1.20
2017-12-27T00:36:31.619Z,1.20
2017-12-27T00:38:58.017Z,1.30
2017-12-27T00:41:24.367Z,1.30
2017-12-27T00:43:50.748Z,1.30
2017-12-27T00:46:17.126Z,1.30
2017-12-27T00:48:43.497Z,1.30
2017-12-27T00:51:09.890Z,1.30
2017-12-27T00:53:36.250Z,1.30
2017-12-27T00:56:03.371Z,1.50
2017-12-27T00:58:29.730Z,1.40
2017-12-27T01:00:56.813Z,1.50
2017-12-27T01:03:23.204Z,1.50
2017-12-27T01:05:50.427Z,1.50
2017-12-27T01:08:16.773Z,1.40
2017-12-27T01:10:43.114Z,1.40
2017-12-27T01:13:10.230Z,1.40
2017-12-27T01:15:36.587Z,1.40
2017-12-27T01:18:03.718Z,1.30
2017-12-27T01:20:30.060Z,1.30
2017-12-27T01:22:56.421Z,1.20
2017-12-27T01:25:23.538Z,1.10
2017-12-27T01:27:49.881Z,1.10
2017-12-27T01:30:16.245Z,1.00
2017-12-27T01:32:42.604Z,1.00
2017-12-27T01:35:08.962Z,1.00
2017-12-27T01:37:35.339Z,1.00
2017-12-27T01:40:02.450Z,1.00
2017-12-27T01:42:28.818Z,1.00
2017-12-27T01:44:55.178Z,1.00
2017-12-27T01:47:21.568Z,1.10
2017-12-27T01:49:48.723Z,1.00
2017-12-27T01:52:16.135Z,1.00
2017-12-27T01:54:42.550Z,1.00
2017-12-27T01:57:08.956Z,1.00
2017-12-27T01:59:36.142Z,1.00
2017-12-27T02:02:02.621Z,1.00
2017-12-27T02:04:29.013Z,1.00
2017-12-27T02:06:55.382Z,1.00
2017-12-27T02:09:21.751Z,1.00
2017-12-27T02:11:48.088Z,1.10
2017-12-27T02:14:14.510Z,1.10
2017-12-27T02:16:41.610Z,1.00
2017-12-27T02:19:07.947Z,1.00
2017-12-27T02:21:34.322Z,1.10
2017-12-27T02:24:01.418Z,0.90
2017-12-27T02:26:27.778Z,0.90
2017-12-27T02:28:54.135Z,1.00
2017-12-27T02:31:21.250Z,1.00
2017-12-27T02:33:47.614Z,1.00
2017-12-27T02:36:14.714Z,1.00
2017-12-27T02:38:53.331Z,0.90
2017-12-27T02:41:19.671Z,0.90
2017-12-27T02:43:46.044Z,1.00
2017-12-27T02:46:14.639Z,0.90
2017-12-27T02:48:41.087Z,0.90
2017-12-27T02:51:07.518Z,0.90
2017-12-27T02:53:33.903Z,0.90
2017-12-27T02:56:00.266Z,0.90
2017-12-27T02:58:27.349Z,0.80
2017-12-27T03:00:53.690Z,0.80
2017-12-27T03:03:20.040Z,0.70
2017-12-27T03:05:46.432Z,0.70
2017-12-27T03:08:12.793Z,0.70
2017-12-27T03:10:39.138Z,0.70
2017-12-27T03:13:05.487Z,0.60
2017-12-27T03:15:31.859Z,0.60
2017-12-27T03:17:58.213Z,0.60
2017-12-27T03:20:24.558Z,0.60
2017-12-27T03:22:50.972Z,0.50
2017-12-27T03:25:17.367Z,0.40
2017-12-27T03:27:44.438Z,0.40
2017-12-27T03:30:10.824Z,0.40
2017-12-27T03:32:37.186Z,0.30
2017-12-27T03:35:04.286Z,0.30
2017-12-27T03:37:30.626Z,0.30
2017-12-27T03:39:56.961Z,0.30
2017-12-27T03:42:23.314Z,0.30
2017-12-27T03:44:49.657Z,0.30
2017-12-27T03:47:17.925Z,0.10
2017-12-27T03:49:44.265Z,0.10
2017-12-27T03:52:11.369Z,-0.10
2017-12-27T03:54:37.752Z,-0.20
2017-12-27T03:57:04.097Z,-0.10
2017-12-27T03:59:30.434Z,-0.20
2017-12-27T04:01:56.785Z,-0.10
2017-12-27T04:04:23.140Z,-0.10
2017-12-27T04:06:49.578Z,-0.30
2017-12-27T04:09:15.938Z,-0.30
2017-12-27T04:11:43.032Z,-0.30
2017-12-27T04:14:09.382Z,-0.40
2017-12-27T04:16:35.730Z,-0.30
2017-12-27T04:19:03.127Z,-0.30
2017-12-27T04:21:29.453Z,-0.10
2017-12-27T04:23:56.557Z,-0.10
2017-12-27T04:26:22.908Z,-0.10
2017-12-27T04:28:50.001Z,0.10
2017-12-27T04:31:16.360Z,0.00
2017-12-27T04:33:42.723Z,0.10
2017-12-27T04:36:09.420Z,0.10
2017-12-27T04:38:35.782Z,0.10
2017-12-27T04:41:02.098Z,0.10
2017-12-27T04:43:28.473Z,0.00
2017-12-27T04:45:55.542Z,-0.10
2017-12-27T04:48:21.887Z,-0.10
2017-12-27T04:50:48.254Z,-0.10
2017-12-27T04:53:14.602Z,-0.10
2017-12-27T04:55:40.934Z,0.10
2017-12-27T04:58:07.261Z,0.00
2017-12-27T05:00:33.734Z,0.00
2017-12-27T05:03:01.154Z,0.10
2017-12-27T05:05:27.540Z,0.00
2017-12-27T05:07:53.908Z,0.20
2017-12-27T05:10:20.294Z,0.30
2017-12-27T05:12:46.621Z,0.30
2017-12-27T05:15:13.052Z,0.40
2017-12-27T05:17:39.402Z,0.50
2017-12-27T05:20:05.758Z,0.50
2017-12-27T05:22:32.154Z,0.50
2017-12-27T05:24:58.527Z,0.60
2017-12-27T05:27:24.854Z,0.40
2017-12-27T05:29:51.202Z,0.40
2017-12-27T05:32:17.609Z,0.40
2017-12-27T05:34:45.504Z,0.40
2017-12-27T05:37:11.934Z,0.40
2017-12-27T05:39:38.270Z,0.50
2017-12-27T05:42:04.631Z,0.50
2017-12-27T05:44:34.735Z,0.60
2017-12-27T05:47:01.111Z,0.60
2017-12-27T05:49:27.474Z,0.60
2017-12-27T05:51:53.819Z,0.60
2017-12-27T05:54:20.214Z,0.60
2017-12-27T05:56:46.553Z,0.50
2017-12-27T05:59:12.922Z,0.60
2017-12-27T06:01:39.295Z,0.60
2017-12-27T06:04:05.640Z,0.60
2017-12-27T06:06:31.986Z,0.70
2017-12-27T06:08:58.339Z,0.70
2017-12-27T06:11:24.675Z,0.70
2017-12-27T06:13:51.022Z,0.70
2017-12-27T06:16:17.372Z,0.70
2017-12-27T06:18:44.482Z,0.80
2017-12-27T06:21:10.895Z,0.80
2017-12-27T06:23:37.258Z,0.80
2017-12-27T06:26:03.602Z,0.70
2017-12-27T06:28:30.023Z,0.70
2017-12-27T06:30:56.359Z,0.70
2017-12-27T06:33:22.706Z,0.70
2017-12-27T06:35:49.856Z,0.80
2017-12-27T06:38:16.945Z,0.80
2017-12-27T06:40:43.323Z,0.80
2017-12-27T06:43:09.654Z,0.60
2017-12-27T06:45:36.007Z,0.60
2017-12-27T06:48:03.122Z,0.40
2017-12-27T06:50:29.504Z,0.40
2017-12-27T06:52:55.869Z,0.50
2017-12-27T06:55:22.198Z,0.60
2017-12-27T06:57:49.282Z,0.70
2017-12-27T07:00:15.626Z,0.60
2017-12-27T07:02:42.742Z,0.70
2017-12-27T07:05:09.094Z,0.70
2017-12-27T07:07:35.458Z,0.70
2017-12-27T07:10:02.551Z,0.90
2017-12-27T07:12:28.914Z,0.90
2017-12-27T07:14:55.258Z,0.90
2017-12-27T07:17:22.354Z,1.00
2017-12-27T07:19:48.698Z,0.90
2017-12-27T07:22:15.059Z,1.00
2017-12-27T07:24:42.439Z,1.10
2017-12-27T07:27:08.830Z,1.10
2017-12-27T07:29:35.182Z,1.10
2017-12-27T07:32:01.566Z,1.10
2017-12-27T07:34:27.926Z,1.10
2017-12-27T07:36:54.316Z,1.00
2017-12-27T07:39:20.722Z,1.00
2017-12-27T07:41:47.839Z,1.00
2017-12-27T07:44:14.194Z,1.00
2017-12-27T07:46:40.601Z,0.80
2017-12-27T07:49:06.950Z,0.60
2017-12-27T07:51:33.334Z,0.60
2017-12-27T07:53:59.694Z,0.70
2017-12-27T07:56:26.026Z,0.80
2017-12-27T07:58:53.438Z,1.00
2017-12-27T08:01:20.550Z,1.10
2017-12-27T08:03:46.913Z,1.10
2017-12-27T08:06:14.042Z,1.30
2017-12-27T08:08:40.405Z,1.20
2017-12-27T08:11:06.756Z,1.40
2017-12-27T08:13:33.106Z,1.50
2017-12-27T08:15:59.434Z,1.50
2017-12-27T08:18:25.802Z,1.60
2017-12-27T08:20:52.222Z,1.50
2017-12-27T08:23:18.570Z,1.60
2017-12-27T08:25:44.961Z,1.60
2017-12-27T08:28:11.335Z,1.70
2017-12-27T08:30:38.463Z,1.70
2017-12-27T08:33:04.858Z,1.70
2017-12-27T08:35:31.214Z,1.80
2017-12-27T08:37:57.578Z,1.70
2017-12-27T08:40:24.220Z,1.70
2017-12-27T08:42:50.571Z,1.60
2017-12-27T08:45:17.670Z,1.50
2017-12-27T08:47:44.018Z,1.50
2017-12-27T08:50:10.391Z,1.50
2017-12-27T08:52:37.482Z,1.60
2017-12-27T08:55:03.858Z,1.60
2017-12-27T08:57:32.020Z,1.90
2017-12-27T08:59:59.362Z,1.80
2017-12-27T09:02:25.707Z,2.00
2017-12-27T09:04:52.216Z,2.20
2017-12-27T09:07:18.543Z,2.30
2017-12-27T09:09:44.878Z,2.60
2017-12-27T09:12:11.255Z,2.80
2017-12-27T09:14:38.331Z,3.30
2017-12-27T09:17:04.694Z,3.20
2017-12-27T09:19:31.040Z,3.50
2017-12-27T09:21:57.466Z,3.70
2017-12-27T09:24:23.828Z,3.90
2017-12-27T09:26:50.930Z,4.10
2017-12-27T09:29:18.381Z,4.10
2017-12-27T09:31:44.785Z,4.00
2017-12-27T09:34:11.987Z,3.90
2017-12-27T09:36:38.366Z,3.80
2017-12-27T09:39:04.823Z,4.00
2017-12-27T09:41:31.263Z,3.90
2017-12-27T09:43:57.632Z,4.10
2017-12-27T09:46:24.019Z,4.30
2017-12-27T09:48:50.431Z,4.30
2017-12-27T09:51:16.839Z,4.50
2017-12-27T09:53:44.314Z,4.60
2017-12-27T09:56:11.443Z,5.00
2017-12-27T09:58:37.807Z,4.90
2017-12-27T10:01:04.907Z,5.30
2017-12-27T10:03:31.277Z,5.20
2017-12-27T10:05:58.413Z,5.40
2017-12-27T10:08:24.786Z,5.40
2017-12-27T10:10:51.135Z,5.40
2017-12-27T10:13:17.498Z,5.50
2017-12-27T10:15:43.838Z,5.60
2017-12-27T10:18:10.209Z,5.60
2017-12-27T10:20:36.562Z,5.70
2017-12-27T10:23:02.958Z,5.70
2017-12-27T10:25:30.051Z,5.70
2017-12-27T10:27:56.409Z,5.70
2017-12-27T10:30:22.854Z,6.00
2017-12-27T10:32:49.231Z,6.10
2017-12-27T10:35:15.615Z,6.30
2017-12-27T10:37:41.994Z,6.40
2017-12-27T10:40:08.383Z,6.50
2017-12-27T10:42:34.775Z,6.20
2017-12-27T10:45:01.178Z,5.70
2017-12-27T10:47:29.030Z,5.10
2017-12-27T10:49:55.438Z,5.10
2017-12-27T10:52:21.826Z,5.00
2017-12-27T10:54:48.202Z,5.10
2017-12-27T10:57:14.554Z,5.00
2017-12-27T10:59:40.976Z,5.00
2017-12-27T11:02:07.331Z,4.80
2017-12-27T11:04:34.466Z,4.80
2017-12-27T11:07:00.837Z,4.80
2017-12-27T11:09:27.183Z,4.90
2017-12-27T11:11:54.291Z,5.00
2017-12-27T11:14:21.415Z,4.80
2017-12-27T11:16:47.786Z,4.80
2017-12-27T11:19:14.937Z,4.60
2017-12-27T11:21:42.136Z,4.40
2017-12-27T11:24:08.541Z,4.40
2017-12-27T11:26:34.938Z,4.40
2017-12-27T11:29:01.387Z,4.30
2017-12-27T11:31:28.515Z,4.20
2017-12-27T11:33:54.907Z,4.10
2017-12-27T11:36:21.313Z,4.20
2017-12-27T11:38:47.692Z,3.80
2017-12-27T11:41:14.098Z,3.70
2017-12-27T11:43:40.477Z,3.80
2017-12-27T11:46:06.848Z,3.80
2017-12-27T11:48:33.301Z,3.80
2017-12-27T11:50:59.705Z,3.80
2017-12-27T11:53:26.066Z,3.90
2017-12-27T11:55:52.426Z,4.20
2017-12-27T11:58:18.864Z,4.50
2017-12-27T12:00:45.287Z,4.70
2017-12-27T12:03:11.812Z,4.80
2017-12-27T12:05:38.193Z,5.00
2017-12-27T12:08:06.384Z,5.60
2017-12-27T12:10:33.552Z,5.70
2017-12-27T12:12:59.976Z,5.70
2017-12-27T12:15:26.336Z,5.90
2017-12-27T12:17:52.699Z,5.80
2017-12-27T12:20:19.104Z,5.70
2017-12-27T12:22:45.496Z,5.60
2017-12-27T12:25:12.660Z,5.20
2017-12-27T12:27:39.780Z,5.00
2017-12-27T12:30:06.245Z,5.00
2017-12-27T12:32:32.614Z,5.10
2017-12-27T12:34:58.989Z,5.20
2017-12-27T12:37:26.173Z,5.50
2017-12-27T12:39:52.556Z,5.50
2017-12-27T12:42:18.906Z,5.80
2017-12-27T12:44:45.993Z,6.30
2017-12-27T12:47:12.441Z,6.20
2017-12-27T12:49:38.767Z,6.20
2017-12-27T12:52:05.128Z,6.40
2017-12-27T12:54:31.482Z,6.50
2017-12-27T12:56:58.577Z,6.80
2017-12-27T12:59:24.974Z,6.70
2017-12-27T13:01:52.066Z,6.60
2017-12-27T13:04:18.418Z,6.60
2017-12-27T13:06:45.324Z,6.70
2017-12-27T13:09:12.498Z,6.80
2017-12-27T13:11:38.888Z,6.80
2017-12-27T13:14:06.945Z,6.70
2017-12-27T13:16:33.335Z,6.60
2017-12-27T13:18:59.694Z,6.60
2017-12-27T13:21:26.070Z,6.50
2017-12-27T13:23:52.462Z,6.30
2017-12-27T13:26:19.646Z,6.30
2017-12-27T13:28:46.026Z,6.10
2017-12-27T13:31:12.382Z,5.90
2017-12-27T13:33:38.750Z,5.70
2017-12-27T13:36:05.111Z,5.50
2017-12-27T13:38:31.510Z,5.30
2017-12-27T13:40:57.886Z,5.00
2017-12-27T13:43:24.519Z,4.90
2017-12-27T13:45:50.874Z,4.60
2017-12-27T13:48:17.250Z,4.60
2017-12-27T13:50:43.575Z,4.70
2017-12-27T13:53:09.930Z,4.60
2017-12-27T13:55:36.270Z,4.60
2017-12-27T13:58:03.374Z,4.70
2017-12-27T14:00:30.514Z,4.70
2017-12-27T14:02:59.284Z,4.70
2017-12-27T14:05:25.648Z,4.60
2017-12-27T14:07:55.019Z,4.60
2017-12-27T14:10:22.954Z,4.60
2017-12-27T14:12:49.350Z,4.60
2017-12-27T14:15:15.692Z,4.40
2017-12-27T14:17:42.078Z,4.40
2017-12-27T14:20:08.450Z,4.40
2017-12-27T14:22:34.845Z,4.30
2017-12-27T14:25:02.228Z,4.40
2017-12-27T14:27:28.571Z,4.50
2017-12-27T14:29:55.703Z,4.60
2017-12-27T14:32:22.074Z,4.60
2017-12-27T14:34:48.458Z,4.50
2017-12-27T14:37:14.826Z,4.50
2017-12-27T14:39:41.940Z,4.50
2017-12-27T14:42:08.318Z,4.40
2017-12-27T14:44:34.684Z,4.50
2017-12-27T14:47:01.119Z,4.50
2017-12-27T14:49:28.211Z,4.50
2017-12-27T14:51:55.327Z,4.10
2017-12-27T14:54:21.705Z,4.00
2017-12-27T14:56:48.854Z,3.90
2017-12-27T14:59:15.965Z,3.70
2017-12-27T15:01:42.352Z,3.70
2017-12-27T15:04:08.738Z,3.60
2017-12-27T15:06:35.116Z,3.50
2017-12-27T15:09:01.491Z,3.50
2017-12-27T15:11:27.940Z,3.50
2017-12-27T15:13:54.327Z,3.40
2017-12-27T15:16:20.668Z,3.40
2017-12-27T15:18:48.614Z,3.60
2017-12-27T15:21:14.964Z,3.50
2017-12-27T15:23:41.322Z,3.40
2017-12-27T15:26:07.765Z,3.40
2017-12-27T15:28:34.133Z,3.20
2017-12-27T15:31:01.215Z,3.20
2017-12-27T15:33:28.195Z,3.20
2017-12-27T15:35:54.522Z,3.10
2017-12-27T15:38:20.910Z,3.10
2017-12-27T15:40:47.280Z,3.00
2017-12-27T15:43:13.674Z,3.10
2017-12-27T15:45:40.102Z,3.20
2017-12-27T15:48:06.727Z,3.00
2017-12-27T15:50:34.822Z,3.10
2017-12-27T15:53:02.164Z,3.00
2017-12-27T15:55:29.222Z,3.00
2017-12-27T15:57:56.631Z,3.00
2017-12-27T16:00:23.139Z,3.10
2017-12-27T16:02:49.495Z,3.20
2017-12-27T16:05:15.866Z,3.30
2017-12-27T16:07:42.986Z,3.50
2017-12-27T16:10:09.351Z,3.40
2017-12-27T16:12:36.430Z,3.70
2017-12-27T16:15:02.850Z,3.60
2017-12-27T16:17:29.216Z,3.80
2017-12-27T16:19:55.559Z,3.70
2017-12-27T16:22:21.906Z,3.60
2017-12-27T16:24:48.242Z,3.70
2017-12-27T16:27:15.629Z,3.70
2017-12-27T16:29:42.082Z,3.80
2017-12-27T16:32:08.509Z,3.80
2017-12-27T16:34:34.867Z,3.70
2017-12-27T16:37:01.210Z,3.60
2017-12-27T16:39:27.822Z,3.60
2017-12-27T16:41:54.171Z,3.60
2017-12-27T16:44:20.522Z,3.60
2017-12-27T16:46:46.854Z,3.70
2017-12-27T16:49:13.222Z,3.70
2017-12-27T16:51:39.547Z,3.80
2017-12-27T16:54:06.742Z,3.80
2017-12-27T16:56:33.070Z,3.80
2017-12-27T16:58:59.431Z,3.80
2017-12-27T17:01:25.771Z,3.80
2017-12-27T17:03:52.102Z,3.70
2017-12-27T17:06:18.459Z,3.60
2017-12-27T17:08:45.546Z,3.40
2017-12-27T17:11:11.882Z,3.30
2017-12-27T17:13:38.203Z,3.40
2017-12-27T17:16:04.534Z,3.40
2017-12-27T17:18:30.866Z,3.50
2017-12-27T17:20:57.199Z,3.60
2017-12-27T17:23:23.530Z,3.60
2017-12-27T17:25:49.886Z,3.60
2017-12-27T17:28:16.218Z,3.60
2017-12-27T17:30:42.555Z,3.60
2017-12-27T17:33:08.906Z,3.60
2017-12-27T17:35:35.985Z,3.70
2017-12-27T17:38:02.362Z,3.70
2017-12-27T17:40:28.719Z,3.70
2017-12-27T17:42:55.790Z,3.80
2017-12-27T17:45:22.158Z,3.80
2017-12-27T17:47:48.546Z,3.70
2017-12-27T17:50:14.900Z,3.80
2017-12-27T17:52:41.235Z,3.90
2017-12-27T17:55:07.581Z,3.90
2017-12-27T17:57:33.965Z,4.00
2017-12-27T18:00:01.089Z,3.90
2017-12-27T18:02:27.481Z,3.90
2017-12-27T18:04:53.830Z,3.90
2017-12-27T18:07:20.164Z,3.90
2017-12-27T18:09:46.518Z,3.90
2017-12-27T18:12:12.876Z,3.80
2017-12-27T18:14:39.973Z,3.70
2017-12-27T18:17:06.325Z,3.70
2017-12-27T18:19:32.654Z,3.80
2017-12-27T18:22:00.057Z,3.80
2017-12-27T18:24:27.125Z,4.00
2017-12-27T18:26:53.489Z,4.00
2017-12-27T18:29:19.829Z,4.00
2017-12-27T18:31:46.242Z,4.10
2017-12-27T18:34:13.566Z,4.00
2017-12-27T18:36:39.898Z,4.00
2017-12-27T18:39:06.265Z,3.90
2017-12-27T18:41:32.914Z,3.80
2017-12-27T18:43:59.329Z,3.60
2017-12-27T18:46:25.671Z,3.50
2017-12-27T18:48:52.027Z,3.30
2017-12-27T18:51:18.414Z,3.20
2017-12-27T18:53:44.765Z,3.20
2017-12-27T18:56:11.846Z,3.30
2017-12-27T18:58:38.501Z,3.30
2017-12-27T19:01:06.657Z,2.90
2017-12-27T19:03:34.062Z,2.90
2017-12-27T19:06:00.514Z,2.70
2017-12-27T19:08:26.870Z,2.80
2017-12-27T19:10:53.274Z,2.70
2017-12-27T19:13:19.618Z,2.60
2017-12-27T19:15:46.109Z,2.60
2017-12-27T19:18:13.190Z,2.40
2017-12-27T19:20:39.583Z,2.40
2017-12-27T19:23:06.892Z,2.40
2017-12-27T19:25:33.265Z,2.40
2017-12-27T19:28:00.690Z,2.40
2017-12-27T19:30:27.027Z,2.30
2017-12-27T19:32:53.379Z,2.30
2017-12-27T19:35:19.846Z,2.20
2017-12-27T19:37:46.261Z,2.10
2017-12-27T19:40:13.171Z,2.00
2017-12-27T19:42:39.562Z,1.90
2017-12-27T19:45:05.915Z,1.80
2017-12-27T19:47:32.315Z,1.70
2017-12-27T19:49:59.377Z,1.60
2017-12-27T19:52:25.745Z,1.60
2017-12-27T19:54:52.134Z,1.70
2017-12-27T19:57:18.498Z,1.70
2017-12-27T20:02:18.041Z,1.80
2017-12-27T20:04:44.386Z,1.80
2017-12-27T20:07:11.678Z,1.90
2017-12-27T20:09:38.027Z,1.80
2017-12-27T20:14:38.152Z,1.80
2017-12-27T20:17:04.502Z,1.80
2017-12-27T20:19:30.822Z,1.80
2017-12-27T20:21:57.158Z,1.80
2017-12-27T20:24:23.474Z,1.80
2017-12-27T20:26:49.825Z,1.80
2017-12-27T20:29:16.194Z,1.80
2017-12-27T20:31:42.639Z,1.80
2017-12-27T20:34:09.005Z,1.90
2017-12-27T20:36:35.378Z,1.90
2017-12-27T20:39:01.726Z,1.80
2017-12-27T20:41:28.297Z,1.80
2017-12-27T20:43:55.373Z,1.80
2017-12-27T20:46:21.715Z,1.70
2017-12-27T20:48:48.058Z,1.70
2017-12-27T20:51:14.446Z,1.70
2017-12-27T20:53:40.786Z,1.80
2017-12-27T20:56:07.122Z,1.80
2017-12-27T20:58:33.459Z,1.80
2017-12-27T21:00:59.821Z,1.90
2017-12-27T21:03:26.147Z,1.80
2017-12-27T21:05:52.482Z,1.80
2017-12-27T21:08:18.838Z,1.80
2017-12-27T21:10:45.414Z,1.80
2017-12-27T21:13:11.770Z,1.70
2017-12-27T21:15:39.126Z,1.70
2017-12-27T21:18:05.486Z,1.70
2017-12-27T21:20:32.070Z,1.70
2017-12-27T21:22:58.415Z,1.70
2017-12-27T21:25:24.738Z,1.80
2017-12-27T21:27:51.117Z,1.80
2017-12-27T21:30:17.492Z,1.70
2017-12-27T21:32:43.878Z,1.80
2017-12-27T21:35:10.222Z,1.70
2017-12-27T21:37:36.548Z,1.70
2017-12-27T21:40:02.958Z,1.70
2017-12-27T21:42:29.311Z,1.70
2017-12-27T21:44:55.677Z,1.70
2017-12-27T21:47:28.679Z,1.70
2017-12-27T21:49:57.936Z,1.60
2017-12-27T21:52:24.269Z,1.70
2017-12-27T21:54:50.606Z,1.70
2017-12-27T21:57:16.982Z,1.60
2017-12-27T21:59:49.235Z,1.60
2017-12-27T22:02:16.304Z,1.70
2017-12-27T22:04:42.634Z,1.60
2017-12-27T22:07:08.976Z,1.60
2017-12-27T22:09:35.328Z,1.70
2017-12-27T22:12:01.686Z,1.70
2017-12-27T22:14:28.021Z,1.70
2017-12-27T22:16:54.382Z,1.80
2017-12-27T22:19:20.757Z,1.80
2017-12-27T22:21:47.091Z,1.80
2017-12-27T22:24:13.420Z,1.80
2017-12-27T22:26:39.782Z,1.80
2017-12-27T22:29:06.114Z,1.60
2017-12-27T22:31:32.501Z,1.60
2017-12-27T22:33:58.854Z,1.60
2017-12-27T22:36:25.196Z,1.60
2017-12-27T22:38:51.519Z,1.60
2017-12-27T22:41:17.845Z,1.50
2017-12-27T22:43:44.194Z,1.50
2017-12-27T22:46:10.531Z,1.50
2017-12-27T22:48:36.890Z,1.50
2017-12-27T22:51:03.978Z,1.40
2017-12-27T22:53:30.325Z,1.40
2017-12-27T22:55:56.667Z,1.30
2017-12-27T22:58:23.035Z,1.30
2017-12-27T23:00:50.145Z,1.30
2017-12-27T23:03:16.525Z,1.30
2017-12-27T23:05:42.867Z,1.20
2017-12-27T23:08:09.214Z,1.30
2017-12-27T23:10:35.577Z,1.20
2017-12-27T23:13:01.925Z,1.20
2017-12-27T23:15:29.010Z,1.10
2017-12-27T23:17:55.350Z,1.10
2017-12-27T23:20:21.700Z,1.10
2017-12-27T23:22:48.044Z,1.00
2017-12-27T23:25:14.369Z,1.00
2017-12-27T23:27:40.718Z,1.00
2017-12-27T23:30:07.129Z,1.00
2017-12-27T23:32:33.629Z,0.90
2017-12-27T23:34:59.969Z,0.90
2017-12-27T23:37:26.322Z,0.90
2017-12-27T23:39:52.703Z,0.90
2017-12-27T23:42:19.782Z,0.90
2017-12-27T23:44:46.121Z,0.90
2017-12-27T23:47:12.509Z,0.90
2017-12-27T23:49:38.857Z,1.00
2017-12-27T23:52:05.934Z,1.00
2017-12-27T23:54:32.281Z,1.00
2017-12-27T23:56:58.634Z,1.00
2017-12-27T23:59:24.974Z,0.90
